Flight Track Log - Related Links

Times and Time Zones

All times are in EST time to prevent confusion due to time zone crossing. See the UPS2292 flight status page for this flight to view local times or setup timezone preferences in your user account.

Time Position Orientation Groundspeed Altitude Reporting Facility
EST Latitude Longitude Course Direction KTS MPH feet Rate Location/Type
Thu 05:37:29 PM 28.4408 -81.3222 179° South 135 155  Level FlightAware ADS-B
Thu 05:37:51 PM 28.4268 -81.3212 176° South 134 154 1,200 3,286 Climbing FlightAware ADS-B
Thu 05:38:11 PM 28.4176 -81.3132 143° Southeast 151 174 2,300 3,300 Climbing FlightAware ADS-B
Thu 05:38:31 PM 28.4036 -81.3048 152° Southeast 162 186 3,400 3,450 Climbing FlightAware ADS-B
Thu 05:38:51 PM 28.3894 -81.2973 155° Southeast 176 203 4,600 3,344 Climbing FlightAware ADS-B
Thu 05:39:32 PM 28.3582 -81.2709 143° Southeast 234 269 6,800 3,545 Climbing FlightAware ADS-B
Thu 05:39:57 PM 28.3557 -81.2421 96° East 252 290 8,500 4,400 Climbing FlightAware ADS-B
Thu 05:40:17 PM 28.3589 -81.2131 83° East 255 293 10,100 3,900 Climbing FlightAware ADS-B
Thu 05:40:37 PM 28.3731 -81.1932 51° Northeast 277 319 11,100 3,150 Climbing FlightAware ADS-B
Thu 05:40:57 PM 28.3984 -81.1822 21° North 298 343 12,200 3,836 Climbing FlightAware ADS-B
Thu 05:41:38 PM 28.4529 -81.1906 352° North 314 361 15,000 3,042 Climbing FlightAware ADS-B
Thu 05:42:08 PM 28.5005 -81.2057 344° North 335 386 15,800 900 Climbing FlightAware ADS-B
Thu 05:42:38 PM 28.5471 -81.2211 344° North 372 428 15,900 2,500 Climbing FlightAware ADS-B
Thu 05:43:08 PM 28.5971 -81.2374 344° North 362 417 18,300 4,600 Climbing FlightAware ADS-B
Thu 05:43:38 PM 28.6449 -81.2517 345° North 362 417 20,500 3,639 Climbing FlightAware ADS-B
Thu 05:44:09 PM 28.6936 -81.2661 345° North 377 434 22,000 2,459 Climbing FlightAware ADS-B
Thu 05:44:39 PM 28.7414 -81.2808 345° North 396 456 23,000 968 Climbing FlightAware ADS-B
Thu 05:45:11 PM 28.8024 -81.2998 345° North 396 456 23,000  Level FlightAware ADS-B (KSFB)
Thu 05:45:41 PM 28.8564 -81.3159 345° North 392 451 23,000  Level FlightAware ADS-B
Thu 05:46:13 PM 28.9065 -81.3308 345° North 389 448 23,000 938 Level FlightAware ADS-B (KSFB)
Thu 05:46:45 PM 28.9655 -81.3486 345° North 392 451 24,000 2,676 Climbing FlightAware ADS-B
Thu 05:47:27 PM 29.0402 -81.3709 345° North 394 453 26,300 2,892 Climbing FlightAware ADS-B
Thu 05:48:08 PM 29.1144 -81.3902 347° North 410 472 28,000 1,852 Climbing FlightAware ADS-B
Thu 05:48:48 PM 29.1941 -81.3992 354° North 424 488 28,800 759 Climbing FlightAware ADS-B
Thu 05:49:27 PM 29.2710 -81.4062 355° North 447 514 29,000 150 Climbing FlightAware ADS-B
Thu 05:50:08 PM 29.3576 -81.4145 355° North 450 518 29,000  Level FlightAware ADS-B
Thu 05:50:48 PM 29.4408 -81.4226 355° North 447 514 29,000  Level FlightAware ADS-B
Thu 05:51:28 PM 29.5157 -81.4298 355° North 445 512 29,000  Level FlightAware ADS-B
Thu 05:52:10 PM 29.6044 -81.4384 355° North 445 512 29,000  Level FlightAware ADS-B
Thu 05:52:51 PM 29.6938 -81.4471 355° North 448 516 29,000  Level FlightAware ADS-B
Thu 05:53:35 PM 29.7803 -81.4555 355° North 449 517 29,000  Level FlightAware ADS-B
Thu 05:54:17 PM 29.8718 -81.4644 355° North 449 517 29,000  Level FlightAware ADS-B
Thu 05:54:59 PM 29.9598 -81.4731 355° North 450 518 29,000  Level FlightAware ADS-B
Thu 05:56:27 PM 30.1294 -81.4900 355° North 444 511 29,000  Level Jacksonville Center
Thu 05:57:27 PM 30.2547 -81.5025 355° North 444 511 29,000  Level Jacksonville Center
Thu 05:58:26 PM 30.3822 -81.5081 358° North 444 511 29,000  Level Jacksonville Center
Thu 05:59:27 PM 30.5072 -81.4967 North 439 505 29,000  Level Jacksonville Center
Thu 06:00:27 PM 30.6325 -81.4875 North 439 505 29,000  Level Jacksonville Center
Thu 06:01:27 PM 30.7556 -81.4783 North 444 511 29,000  Level Jacksonville Center
Thu 06:02:27 PM 30.8786 -81.4669 North 439 505 29,000  Level Jacksonville Center
Thu 06:03:27 PM 31.0017 -81.4578 North 439 505 29,000  Level Jacksonville Center
Thu 06:04:27 PM 31.1289 -81.4486 North 444 511 29,000  Level Jacksonville Center
Thu 06:05:27 PM 31.2542 -81.4369 North 440 506 29,000  Level Jacksonville Center
Thu 06:06:27 PM 31.3603 -81.4086 13° North 446 513 29,000  Level Jacksonville Center
Thu 06:07:27 PM 31.4978 -81.3892 North 446 513 29,000  Level Jacksonville Center
Thu 06:08:27 PM 31.6106 -81.3778 North 446 513 29,000  Level Jacksonville Center
Thu 06:09:27 PM 31.7481 -81.3608 North 446 513 29,000 -300 Level Jacksonville Center
Thu 06:10:27 PM 31.8731 -81.3489 North 446 513 28,400 -1,000 Descending Jacksonville Center
Thu 06:11:27 PM 31.9983 -81.3322 North 446 513 27,000 -1,450 Descending Jacksonville Center
Thu 06:12:27 PM 32.1214 -81.3203 North 437 503 25,500 -1,350 Descending Jacksonville Center
Thu 06:13:27 PM 32.2400 -81.3033 North 427 491 24,300 -1,050 Descending Jacksonville Center
Thu 06:14:27 PM 32.3569 -81.2917 North 422 486 23,400 -950 Descending Jacksonville Center
Thu 06:15:27 PM 32.4694 -81.2797 North 410 472 22,400 -950 Descending Jacksonville Center
Thu 06:16:27 PM 32.5819 -81.2678 North 405 466 21,500 -1,300 Descending Jacksonville Center
Thu 06:17:27 PM 32.6800 -81.2586 North 405 466 19,800 -1,850 Descending Jacksonville Center
Thu 06:18:27 PM 32.7864 -81.2444 North 399 459 17,800 -1,650 Descending Jacksonville Center
Thu 06:19:27 PM 32.8906 -81.2350 North 381 438 16,500 -1,300 Descending Jacksonville Center
Thu 06:20:27 PM 32.9969 -81.2258 North 376 433 15,200 -1,350 Descending Jacksonville Center
Thu 06:21:27 PM 33.0928 -81.2114 North 364 419 13,800 -1,400 Descending Jacksonville Center
Thu 06:22:27 PM 33.1928 -81.2022 North 359 413 12,400 -1,200 Descending Jacksonville Center
Thu 06:23:27 PM 33.2886 -81.1903 North 353 406 11,400 -950 Descending Jacksonville Center
Thu 06:24:27 PM 33.3783 -81.1814 North 338 389 10,500 -1,350 Descending Jacksonville Center
Thu 06:25:27 PM 33.4575 -81.1722 North 315 362 8,700 -1,800 Descending Jacksonville Center
Thu 06:26:27 PM 33.5319 -81.1383 21° North 290 334 6,900 -1,550 Descending Jacksonville Center
Thu 06:27:27 PM 33.6022 -81.0772 36° Northeast 285 328 5,600 -1,250 Descending Jacksonville Center
Thu 06:28:27 PM 33.6703 -81.0208 35° Northeast 285 328 4,400 -1,250 Descending Jacksonville Center
Thu 06:29:27 PM 33.7425 -80.9794 25° Northeast 293 337 3,100 -1,100 Descending Jacksonville Center
Thu 06:30:27 PM 33.8153 -80.9528 17° North 281 323 2,200 -900 Descending Jacksonville Center
Thu 06:32:00 PM 33.9151 -81.0874 328° Northwest  Level Estimated
Thu 06:39:00 PM 33.9333 -81.1167 328° Northwest  Level FlightAware Approximate
Thu 06:40:00 PM 33.9388 -81.1195 328° Northwest  Level Estimated
Thu 06:41:00 PM 33.9333 -81.1167 328° Northwest  Level FlightAware Approximate
Thu 06:42:00 PM 33.9388 -81.1195 328° Northwest  Level Estimated
Thu 06:43:00 PM 33.9333 -81.1167 328° Northwest  Level FlightAware Approximate
Thu 06:44:00 PM 33.9388 -81.1195 328° Northwest  Level Estimated
Thu 06:45:00 PM 33.9333 -81.1167 328° Northwest  Level FlightAware Approximate

Login

Don't have an account? Register now (free) for customized features, flight alerts, and more!